sensor_id;sensor_type;location;lat;lon;timestamp;P1;P2;P0
31163;PMS5003;17796;49.296;-117.656;2024-01-10T00:06:02;8;8;
31163;PMS5003;17796;49.296;-117.656;2024-01-10T00:21:06;6;6;
31163;PMS5003;17796;49.296;-117.656;2024-01-10T00:36:10;6;4;
31163;PMS5003;17796;49.296;-117.656;2024-01-10T00:51:13;8;8;
31163;PMS5003;17796;49.296;-117.656;2024-01-10T01:06:17;4;4;
31163;PMS5003;17796;49.296;-117.656;2024-01-10T01:21:21;8;4;
31163;PMS5003;17796;49.296;-117.656;2024-01-10T01:36:24;7;6;
31163;PMS5003;17796;49.296;-117.656;2024-01-10T01:51:29;5;5;
31163;PMS5003;17796;49.296;-117.656;2024-01-10T02:06:33;8;5;
31163;PMS5003;17796;49.296;-117.656;2024-01-10T02:21:37;3;3;
31163;PMS5003;17796;49.296;-117.656;2024-01-10T02:36:40;10;8;
31163;PMS5003;17796;49.296;-117.656;2024-01-10T02:51:44;8;8;
31163;PMS5003;17796;49.296;-117.656;2024-01-10T03:06:48;3;3;
31163;PMS5003;17796;49.296;-117.656;2024-01-10T03:21:51;2;2;
31163;PMS5003;17796;49.296;-117.656;2024-01-10T03:36:55;2;2;
31163;PMS5003;17796;49.296;-117.656;2024-01-10T03:51:59;0;0;
31163;PMS5003;17796;49.296;-117.656;2024-01-10T04:07:07;2;1;
31163;PMS5003;17796;49.296;-117.656;2024-01-10T04:22:11;2;2;
31163;PMS5003;17796;49.296;-117.656;2024-01-10T04:37:14;1;1;
31163;PMS5003;17796;49.296;-117.656;2024-01-10T04:52:18;0;0;
31163;PMS5003;17796;49.296;-117.656;2024-01-10T05:07:21;2;2;
31163;PMS5003;17796;49.296;-117.656;2024-01-10T05:22:25;4;2;
31163;PMS5003;17796;49.296;-117.656;2024-01-10T05:37:29;6;4;
31163;PMS5003;17796;49.296;-117.656;2024-01-10T05:52:33;1;1;
31163;PMS5003;17796;49.296;-117.656;2024-01-10T06:07:36;7;6;
31163;PMS5003;17796;49.296;-117.656;2024-01-10T06:22:40;0;0;
31163;PMS5003;17796;49.296;-117.656;2024-01-10T06:37:43;2;2;
31163;PMS5003;17796;49.296;-117.656;2024-01-10T06:52:47;0;0;
31163;PMS5003;17796;49.296;-117.656;2024-01-10T07:07:50;1;1;
31163;PMS5003;17796;49.296;-117.656;2024-01-10T07:22:54;8;4;
31163;PMS5003;17796;49.296;-117.656;2024-01-10T07:37:57;6;6;
31163;PMS5003;17796;49.296;-117.656;2024-01-10T07:53:01;4;4;
31163;PMS5003;17796;49.296;-117.656;2024-01-10T08:08:05;2;2;
31163;PMS5003;17796;49.296;-117.656;2024-01-10T08:23:09;2;2;
31163;PMS5003;17796;49.296;-117.656;2024-01-10T08:38:12;1;1;
31163;PMS5003;17796;49.296;-117.656;2024-01-10T08:53:16;3;2;
31163;PMS5003;17796;49.296;-117.656;2024-01-10T09:08:19;8;7;
31163;PMS5003;17796;49.296;-117.656;2024-01-10T09:23:23;8;6;
31163;PMS5003;17796;49.296;-117.656;2024-01-10T09:38:26;8;8;
31163;PMS5003;17796;49.296;-117.656;2024-01-10T09:53:33;13;13;
31163;PMS5003;17796;49.296;-117.656;2024-01-10T10:08:38;12;12;
31163;PMS5003;17796;49.296;-117.656;2024-01-10T10:23:57;4;4;
31163;PMS5003;17796;49.296;-117.656;2024-01-10T10:39:02;3;3;
31163;PMS5003;17796;49.296;-117.656;2024-01-10T10:54:07;6;3;
31163;PMS5003;17796;49.296;-117.656;2024-01-10T11:09:11;4;4;
31163;PMS5003;17796;49.296;-117.656;2024-01-10T11:24:17;3;3;
31163;PMS5003;17796;49.296;-117.656;2024-01-10T11:39:21;6;6;
31163;PMS5003;17796;49.296;-117.656;2024-01-10T11:54:42;2;1;
31163;PMS5003;17796;49.296;-117.656;2024-01-10T12:09:46;1;1;
31163;PMS5003;17796;49.296;-117.656;2024-01-10T12:24:50;4;2;
31163;PMS5003;17796;49.296;-117.656;2024-01-10T12:39:53;4;4;
31163;PMS5003;17796;49.296;-117.656;2024-01-10T12:54:57;6;6;
31163;PMS5003;17796;49.296;-117.656;2024-01-10T13:10:01;7;6;
31163;PMS5003;17796;49.296;-117.656;2024-01-10T13:25:05;7;6;
31163;PMS5003;17796;49.296;-117.656;2024-01-10T13:40:10;6;5;
31163;PMS5003;17796;49.296;-117.656;2024-01-10T13:55:15;5;5;
31163;PMS5003;17796;49.296;-117.656;2024-01-10T14:10:18;12;8;
31163;PMS5003;17796;49.296;-117.656;2024-01-10T14:25:22;8;6;
31163;PMS5003;17796;49.296;-117.656;2024-01-10T14:40:25;7;7;
31163;PMS5003;17796;49.296;-117.656;2024-01-10T14:55:29;12;8;
31163;PMS5003;17796;49.296;-117.656;2024-01-10T15:10:33;12;7;
31163;PMS5003;17796;49.296;-117.656;2024-01-10T15:25:37;6;6;
31163;PMS5003;17796;49.296;-117.656;2024-01-10T15:40:41;3;3;
31163;PMS5003;17796;49.296;-117.656;2024-01-10T15:55:44;4;4;
31163;PMS5003;17796;49.296;-117.656;2024-01-10T16:10:48;6;6;
31163;PMS5003;17796;49.296;-117.656;2024-01-10T16:25:52;3;3;
31163;PMS5003;17796;49.296;-117.656;2024-01-10T16:40:57;5;5;
31163;PMS5003;17796;49.296;-117.656;2024-01-10T16:56:00;8;6;
31163;PMS5003;17796;49.296;-117.656;2024-01-10T17:11:05;4;4;
31163;PMS5003;17796;49.296;-117.656;2024-01-10T17:26:08;2;2;
31163;PMS5003;17796;49.296;-117.656;2024-01-10T17:41:12;1;1;
31163;PMS5003;17796;49.296;-117.656;2024-01-10T17:56:16;4;3;
31163;PMS5003;17796;49.296;-117.656;2024-01-10T18:11:19;4;4;
31163;PMS5003;17796;49.296;-117.656;2024-01-10T18:26:23;8;4;
31163;PMS5003;17796;49.296;-117.656;2024-01-10T18:41:27;9;9;
31163;PMS5003;17796;49.296;-117.656;2024-01-10T18:56:31;17;11;
31163;PMS5003;17796;49.296;-117.656;2024-01-10T19:11:34;13;8;
31163;PMS5003;17796;49.296;-117.656;2024-01-10T19:26:38;11;8;
31163;PMS5003;17796;49.296;-117.656;2024-01-10T19:41:42;9;9;
31163;PMS5003;17796;49.296;-117.656;2024-01-10T19:56:46;8;6;
31163;PMS5003;17796;49.296;-117.656;2024-01-10T20:11:50;10;8;
31163;PMS5003;17796;49.296;-117.656;2024-01-10T20:26:54;9;9;
31163;PMS5003;17796;49.296;-117.656;2024-01-10T20:41:58;10;10;
31163;PMS5003;17796;49.296;-117.656;2024-01-10T20:57:02;11;11;
31163;PMS5003;17796;49.296;-117.656;2024-01-10T21:12:07;7;6;
31163;PMS5003;17796;49.296;-117.656;2024-01-10T21:27:11;6;6;
31163;PMS5003;17796;49.296;-117.656;2024-01-10T21:42:16;6;6;
31163;PMS5003;17796;49.296;-117.656;2024-01-10T21:57:20;6;6;
31163;PMS5003;17796;49.296;-117.656;2024-01-10T22:12:23;6;6;
31163;PMS5003;17796;49.296;-117.656;2024-01-10T22:27:27;10;7;
31163;PMS5003;17796;49.296;-117.656;2024-01-10T22:42:31;7;6;
31163;PMS5003;17796;49.296;-117.656;2024-01-10T22:57:34;17;16;
31163;PMS5003;17796;49.296;-117.656;2024-01-10T23:12:38;20;18;
31163;PMS5003;17796;49.296;-117.656;2024-01-10T23:27:42;27;25;
31163;PMS5003;17796;49.296;-117.656;2024-01-10T23:42:46;31;28;
31163;PMS5003;17796;49.296;-117.656;2024-01-10T23:57:50;27;24;
